createdAt,value
2019-05-25T00:00:46.904Z,5.90
2019-05-25T00:01:46.886Z,6.60
2019-05-25T00:02:46.889Z,5.50
2019-05-25T00:03:46.883Z,5.10
2019-05-25T00:04:46.873Z,4.40
2019-05-25T00:05:46.838Z,4.30
2019-05-25T00:06:46.832Z,3.70
2019-05-25T00:07:46.832Z,3.70
2019-05-25T00:08:46.808Z,3.60
2019-05-25T00:09:48.450Z,4.20
2019-05-25T00:10:46.781Z,4.30
2019-05-25T00:11:46.775Z,4.30
2019-05-25T00:12:46.764Z,4.20
2019-05-25T00:13:46.753Z,4.40
2019-05-25T00:14:46.753Z,4.20
2019-05-25T00:15:46.726Z,4.00
2019-05-25T00:16:46.719Z,3.90
2019-05-25T00:17:46.709Z,4.20
2019-05-25T00:18:46.697Z,4.10
2019-05-25T00:19:46.702Z,4.00
2019-05-25T00:20:46.686Z,4.30
2019-05-25T00:21:46.658Z,4.20
2019-05-25T00:22:46.652Z,4.40
2019-05-25T00:23:46.637Z,4.10
2019-05-25T00:24:46.624Z,3.70
2019-05-25T00:25:46.621Z,4.30
2019-05-25T00:26:46.611Z,3.90
2019-05-25T00:27:46.591Z,4.30
2019-05-25T00:28:46.579Z,4.30
2019-05-25T00:29:46.581Z,4.00
2019-05-25T00:30:46.558Z,4.20
2019-05-25T00:31:46.547Z,4.00
2019-05-25T00:32:46.534Z,4.50
2019-05-25T00:33:46.525Z,4.40
2019-05-25T00:34:46.532Z,4.10
2019-05-25T00:35:46.515Z,4.40
2019-05-25T00:36:46.498Z,4.20
2019-05-25T00:37:46.500Z,4.30
2019-05-25T00:38:46.470Z,4.30
2019-05-25T00:39:46.458Z,4.80
2019-05-25T00:40:46.466Z,4.30
2019-05-25T00:41:46.436Z,4.60
2019-05-25T00:42:46.427Z,4.40
2019-05-25T00:43:46.416Z,4.30
2019-05-25T00:44:46.435Z,4.30
2019-05-25T00:45:46.396Z,4.20
2019-05-25T00:46:46.387Z,4.00
2019-05-25T00:47:46.373Z,4.40
2019-05-25T00:48:46.361Z,4.30
2019-05-25T00:49:46.347Z,4.30
2019-05-25T00:50:46.350Z,4.20
2019-05-25T00:51:46.335Z,4.60
2019-05-25T00:52:46.330Z,4.30
2019-05-25T00:53:46.316Z,4.60
2019-05-25T00:54:46.293Z,4.00
2019-05-25T00:55:46.287Z,4.90
2019-05-25T00:56:46.292Z,4.40
2019-05-25T00:57:46.266Z,4.30
2019-05-25T00:58:46.252Z,5.00
2019-05-25T00:59:46.260Z,4.60
2019-05-25T01:00:46.265Z,4.70
2019-05-25T01:01:46.221Z,4.70
2019-05-25T01:02:46.230Z,4.80
2019-05-25T01:03:46.204Z,5.00
2019-05-25T01:04:46.189Z,4.60
2019-05-25T01:05:46.176Z,4.80
2019-05-25T01:06:46.189Z,4.80
2019-05-25T01:07:46.151Z,4.40
2019-05-25T01:08:46.149Z,4.60
2019-05-25T01:09:46.141Z,4.60
2019-05-25T01:10:46.124Z,5.00
2019-05-25T01:11:46.129Z,4.80
2019-05-25T01:12:46.112Z,4.90
2019-05-25T01:13:46.086Z,5.10
2019-05-25T01:14:46.084Z,5.10
2019-05-25T01:15:46.064Z,4.80
2019-05-25T01:16:46.108Z,4.80
2019-05-25T01:17:46.055Z,5.30
2019-05-25T01:18:46.032Z,4.90
2019-05-25T01:19:46.029Z,5.10
2019-05-25T01:20:46.010Z,4.80
2019-05-25T01:21:46.009Z,4.90
2019-05-25T01:22:45.991Z,5.90
2019-05-25T01:23:45.979Z,4.90
2019-05-25T01:24:45.966Z,5.10
2019-05-25T01:25:45.954Z,5.00
2019-05-25T01:26:45.954Z,5.10
2019-05-25T01:27:45.944Z,5.00
2019-05-25T01:28:45.925Z,5.00
2019-05-25T01:29:45.912Z,5.30
2019-05-25T01:30:45.899Z,4.90
2019-05-25T01:31:45.891Z,5.70
2019-05-25T01:32:45.898Z,5.00
2019-05-25T01:33:45.868Z,5.20
2019-05-25T01:34:45.857Z,5.20
2019-05-25T01:35:45.846Z,5.20
2019-05-25T01:36:45.840Z,5.20
2019-05-25T01:37:48.447Z,5.40
2019-05-25T01:38:45.821Z,5.70
2019-05-25T01:39:45.805Z,5.40
2019-05-25T01:40:45.793Z,5.60
2019-05-25T01:41:45.782Z,5.30
2019-05-25T01:42:45.785Z,5.10
2019-05-25T01:43:45.771Z,5.60
2019-05-25T01:44:45.749Z,5.20
2019-05-25T01:45:45.735Z,5.80
2019-05-25T01:46:45.726Z,6.00
2019-05-25T01:47:45.712Z,5.60
2019-05-25T01:48:45.710Z,5.80
2019-05-25T01:49:45.692Z,5.90
2019-05-25T01:50:45.681Z,5.20
2019-05-25T01:51:45.670Z,6.30
2019-05-25T01:52:45.658Z,6.00
2019-05-25T01:53:45.697Z,5.20
2019-05-25T01:54:58.913Z,5.90
2019-05-25T01:55:46.632Z,5.60
2019-05-25T01:56:45.610Z,5.20
2019-05-25T01:57:45.602Z,5.30
2019-05-25T01:58:45.592Z,5.60
2019-05-25T01:59:45.595Z,5.60
2019-05-25T02:00:45.565Z,5.80
2019-05-25T02:01:45.555Z,5.90
2019-05-25T02:02:45.548Z,5.90
2019-05-25T02:03:45.532Z,5.80
2019-05-25T02:04:45.534Z,6.00
2019-05-25T02:05:45.520Z,6.10
2019-05-25T02:06:45.500Z,6.30
2019-05-25T02:07:45.489Z,6.20
2019-05-25T02:08:45.484Z,6.00
2019-05-25T02:09:45.478Z,5.90
2019-05-25T02:10:45.453Z,5.90
2019-05-25T02:11:45.451Z,5.70
2019-05-25T02:12:45.433Z,5.80
2019-05-25T02:13:45.421Z,5.70
2019-05-25T02:14:45.439Z,6.10
2019-05-25T02:15:45.401Z,5.80
2019-05-25T02:16:45.389Z,5.60
2019-05-25T02:17:45.382Z,5.60
2019-05-25T02:18:45.865Z,5.80
2019-05-25T02:19:45.355Z,5.90
2019-05-25T02:20:45.361Z,5.50
2019-05-25T02:21:45.337Z,5.80
2019-05-25T02:22:45.319Z,6.20
2019-05-25T02:23:45.312Z,6.00
2019-05-25T02:24:45.301Z,6.10
2019-05-25T02:25:45.303Z,6.30
2019-05-25T02:26:45.300Z,6.30
2019-05-25T02:27:45.270Z,6.20
2019-05-25T02:28:45.256Z,6.00
2019-05-25T02:29:45.249Z,6.50
2019-05-25T02:30:46.947Z,6.30
2019-05-25T02:31:45.237Z,6.10
2019-05-25T02:32:45.217Z,6.60
2019-05-25T02:33:45.204Z,5.80
2019-05-25T02:34:45.187Z,6.10
2019-05-25T02:35:45.179Z,6.20
2019-05-25T02:36:45.178Z,5.90
2019-05-25T02:37:45.160Z,6.20
2019-05-25T02:38:45.157Z,6.60
2019-05-25T02:39:45.139Z,6.40
2019-05-25T02:40:45.145Z,6.20
2019-05-25T02:41:45.111Z,6.40
2019-05-25T02:42:45.112Z,6.30
2019-05-25T02:43:45.091Z,7.10
2019-05-25T02:44:45.083Z,6.20
2019-05-25T02:45:45.081Z,6.70
2019-05-25T02:46:45.067Z,6.60
2019-05-25T02:47:45.050Z,6.90
2019-05-25T02:48:45.041Z,6.30
2019-05-25T02:49:45.020Z,6.80
2019-05-25T02:50:45.021Z,6.50
2019-05-25T02:51:45.006Z,6.50
2019-05-25T02:52:44.986Z,7.10
2019-05-25T02:53:44.991Z,6.80
2019-05-25T02:54:44.966Z,6.50
2019-05-25T02:55:44.979Z,6.50
2019-05-25T02:56:44.944Z,6.70
2019-05-25T02:57:44.934Z,6.70
2019-05-25T02:58:44.931Z,7.10
2019-05-25T02:59:44.922Z,6.80
2019-05-25T03:00:44.904Z,7.00
2019-05-25T03:01:44.890Z,7.10
2019-05-25T03:02:44.969Z,7.50
2019-05-25T03:03:44.871Z,7.50
2019-05-25T03:04:44.856Z,7.80
2019-05-25T03:05:44.990Z,7.60
2019-05-25T03:06:44.833Z,7.00
2019-05-25T03:07:44.861Z,7.80
2019-05-25T03:08:44.810Z,7.30
2019-05-25T03:09:44.798Z,7.40
2019-05-25T03:10:44.788Z,7.40
2019-05-25T03:11:44.776Z,7.50
2019-05-25T03:12:44.762Z,7.20
2019-05-25T03:13:44.764Z,7.80
2019-05-25T03:14:44.743Z,8.10
2019-05-25T03:15:44.751Z,7.10
2019-05-25T03:16:44.717Z,6.60
2019-05-25T03:17:44.706Z,7.30
2019-05-25T03:18:44.698Z,7.10
2019-05-25T03:19:44.687Z,6.90
2019-05-25T03:20:44.675Z,6.90
2019-05-25T03:21:44.676Z,7.00
2019-05-25T03:22:44.649Z,7.00
2019-05-25T03:23:44.648Z,6.90
2019-05-25T03:24:44.684Z,7.30
2019-05-25T03:25:49.727Z,6.70
2019-05-25T03:26:45.616Z,7.50
2019-05-25T03:27:44.592Z,7.00
2019-05-25T03:28:44.584Z,6.70
2019-05-25T03:29:44.599Z,7.20
2019-05-25T03:30:44.560Z,6.80
2019-05-25T03:31:44.550Z,6.50
2019-05-25T03:32:44.555Z,6.80
2019-05-25T03:33:44.525Z,6.90
2019-05-25T03:34:44.512Z,7.20
2019-05-25T03:35:44.569Z,6.90
2019-05-25T03:36:44.492Z,7.00
2019-05-25T03:37:44.483Z,7.00
2019-05-25T03:38:44.465Z,7.00
2019-05-25T03:39:44.458Z,7.50
2019-05-25T03:40:44.450Z,6.90
2019-05-25T03:41:44.442Z,7.00
2019-05-25T03:42:44.422Z,7.50
2019-05-25T03:43:44.410Z,6.90
2019-05-25T03:44:44.404Z,7.40
2019-05-25T03:45:44.405Z,7.30
2019-05-25T03:46:44.376Z,7.60
2019-05-25T03:47:44.365Z,6.80
2019-05-25T03:48:44.362Z,6.90
2019-05-25T03:49:44.349Z,6.80
2019-05-25T03:50:44.350Z,6.80
2019-05-25T03:51:44.326Z,6.50
2019-05-25T03:52:44.310Z,6.70
2019-05-25T03:53:44.293Z,6.90
2019-05-25T03:54:44.290Z,6.50
2019-05-25T03:55:44.275Z,6.80
2019-05-25T03:56:44.275Z,7.30
2019-05-25T03:57:44.248Z,8.00
2019-05-25T03:58:44.238Z,7.10
2019-05-25T03:59:44.230Z,8.00
2019-05-25T04:00:44.214Z,7.80
2019-05-25T04:01:44.221Z,7.90
2019-05-25T04:02:44.219Z,8.50
2019-05-25T04:03:44.188Z,8.20
2019-05-25T04:04:44.239Z,8.10
2019-05-25T04:05:44.162Z,7.70
2019-05-25T04:06:44.160Z,8.50
2019-05-25T04:07:44.137Z,8.00
2019-05-25T04:08:44.148Z,7.40
2019-05-25T04:09:44.119Z,7.80
2019-05-25T04:10:44.133Z,7.20
2019-05-25T04:11:44.096Z,7.40
2019-05-25T04:12:44.082Z,7.20
2019-05-25T04:13:44.093Z,7.20
2019-05-25T04:14:44.065Z,7.10
2019-05-25T04:15:44.100Z,7.20
2019-05-25T04:16:44.030Z,7.20
2019-05-25T04:17:44.023Z,6.60
2019-05-25T04:18:44.021Z,7.30
2019-05-25T04:19:43.997Z,6.70
2019-05-25T04:20:44.007Z,6.50
2019-05-25T04:21:43.980Z,6.90
2019-05-25T04:22:43.972Z,6.60
2019-05-25T04:23:43.959Z,6.70
2019-05-25T04:24:43.962Z,7.00
2019-05-25T04:25:43.969Z,6.70
2019-05-25T04:26:43.933Z,6.50
2019-05-25T04:27:43.913Z,6.60
2019-05-25T04:28:43.905Z,6.50
2019-05-25T04:29:43.893Z,6.80
2019-05-25T04:30:43.936Z,5.90
2019-05-25T04:31:43.862Z,6.20
2019-05-25T04:32:43.868Z,6.50
2019-05-25T04:33:43.844Z,6.60
2019-05-25T04:34:43.933Z,5.90
2019-05-25T04:35:43.845Z,6.60
2019-05-25T04:36:43.827Z,6.50
2019-05-25T04:37:43.802Z,6.40
2019-05-25T04:38:43.871Z,6.50
2019-05-25T04:39:43.774Z,6.30
2019-05-25T04:40:43.765Z,6.70
2019-05-25T04:41:43.767Z,6.10
2019-05-25T04:42:43.739Z,6.40
2019-05-25T04:43:43.741Z,6.80
2019-05-25T04:44:43.819Z,6.00
2019-05-25T04:45:43.710Z,6.50
2019-05-25T04:46:43.765Z,6.30
2019-05-25T04:47:43.857Z,6.20
2019-05-25T04:48:43.687Z,6.20
2019-05-25T04:49:43.667Z,6.60
2019-05-25T04:50:43.694Z,6.70
2019-05-25T04:51:43.730Z,6.30
2019-05-25T04:52:43.631Z,6.70
2019-05-25T04:53:43.620Z,7.70
2019-05-25T04:54:43.613Z,6.00
2019-05-25T04:55:43.599Z,6.90
2019-05-25T04:56:43.589Z,6.40
2019-05-25T04:57:43.593Z,6.30
2019-05-25T04:58:43.568Z,6.70
2019-05-25T04:59:43.554Z,7.00
2019-05-25T05:00:43.554Z,6.90
2019-05-25T05:01:43.532Z,7.00
2019-05-25T05:02:43.520Z,6.90
2019-05-25T05:03:43.511Z,6.20
2019-05-25T05:04:43.496Z,7.10
2019-05-25T05:05:43.506Z,6.80
2019-05-25T05:06:43.485Z,6.80
2019-05-25T05:07:43.470Z,6.70
2019-05-25T05:08:43.454Z,6.60
2019-05-25T05:09:43.440Z,6.90
2019-05-25T05:10:43.433Z,6.80
2019-05-25T05:11:43.440Z,6.70
2019-05-25T05:12:43.409Z,6.70
2019-05-25T05:13:43.399Z,7.00
2019-05-25T05:14:43.392Z,7.00
2019-05-25T05:15:43.388Z,7.10
2019-05-25T05:16:43.378Z,7.30
2019-05-25T05:17:43.354Z,7.20
2019-05-25T05:18:43.345Z,6.40
2019-05-25T05:19:43.347Z,6.30
2019-05-25T05:20:43.320Z,6.90
2019-05-25T05:21:43.330Z,6.80
2019-05-25T05:22:43.297Z,6.60
2019-05-25T05:23:43.285Z,7.20
2019-05-25T05:24:43.282Z,6.60
2019-05-25T05:25:43.266Z,7.90
2019-05-25T05:26:55.199Z,7.10
2019-05-25T05:27:44.240Z,7.30
2019-05-25T05:28:43.234Z,7.10
2019-05-25T05:29:43.219Z,7.60
2019-05-25T05:30:43.268Z,6.20
2019-05-25T05:31:43.201Z,7.00
2019-05-25T05:32:43.193Z,6.90
2019-05-25T05:33:43.194Z,7.30
2019-05-25T05:34:43.171Z,6.50
2019-05-25T05:35:43.155Z,6.80
2019-05-25T05:36:43.154Z,6.90
2019-05-25T05:37:43.135Z,6.60
2019-05-25T05:38:43.123Z,6.50
2019-05-25T05:39:43.121Z,5.80
2019-05-25T05:40:43.099Z,6.50
2019-05-25T05:41:43.097Z,5.70
2019-05-25T05:42:43.100Z,5.90
2019-05-25T05:43:43.071Z,5.50
2019-05-25T05:44:43.068Z,5.60
2019-05-25T05:45:43.066Z,5.30
2019-05-25T05:46:43.032Z,5.60
2019-05-25T05:47:43.035Z,5.10
2019-05-25T05:48:43.015Z,4.50
2019-05-25T05:49:42.997Z,5.40
2019-05-25T05:50:42.988Z,5.40
2019-05-25T05:51:42.983Z,4.90
2019-05-25T05:52:42.983Z,4.80
2019-05-25T05:53:42.956Z,4.70
2019-05-25T05:54:42.942Z,5.10
2019-05-25T05:55:42.967Z,5.00
2019-05-25T05:56:42.924Z,5.20
2019-05-25T05:57:42.913Z,4.40
2019-05-25T05:58:42.902Z,5.00
2019-05-25T05:59:42.888Z,5.00
2019-05-25T06:00:42.895Z,4.40
2019-05-25T06:01:42.891Z,4.70
2019-05-25T06:02:42.851Z,4.20
2019-05-25T06:03:42.844Z,4.30
2019-05-25T06:04:42.832Z,4.10
2019-05-25T06:05:42.816Z,4.30
2019-05-25T06:06:42.815Z,3.70
2019-05-25T06:07:42.829Z,4.00
2019-05-25T06:08:42.787Z,4.00
2019-05-25T06:09:42.780Z,3.90
2019-05-25T06:10:42.766Z,4.10
2019-05-25T06:11:42.755Z,3.80
2019-05-25T06:12:42.744Z,3.80
2019-05-25T06:13:42.762Z,3.90
2019-05-25T06:14:42.719Z,3.40
2019-05-25T06:15:42.713Z,4.20
2019-05-25T06:16:42.707Z,4.00
2019-05-25T06:17:42.688Z,4.10
2019-05-25T06:18:42.676Z,3.80
2019-05-25T06:19:42.684Z,3.80
2019-05-25T06:20:42.658Z,3.90
2019-05-25T06:21:42.658Z,3.60
2019-05-25T06:22:42.629Z,3.60
2019-05-25T06:23:42.621Z,3.80
2019-05-25T06:24:42.622Z,3.50
2019-05-25T06:25:42.598Z,3.20
2019-05-25T06:26:42.621Z,3.90
2019-05-25T06:27:42.574Z,3.40
2019-05-25T06:28:42.567Z,3.40
2019-05-25T06:29:42.551Z,3.60
2019-05-25T06:30:42.539Z,3.60
2019-05-25T06:31:42.535Z,3.20
2019-05-25T06:32:42.530Z,3.00
2019-05-25T06:33:42.509Z,3.10
2019-05-25T06:34:42.497Z,3.20
2019-05-25T06:35:42.488Z,3.40
2019-05-25T06:36:42.475Z,3.10
2019-05-25T06:37:42.475Z,3.30
2019-05-25T06:38:42.449Z,3.10
2019-05-25T06:39:42.435Z,3.30
2019-05-25T06:40:42.426Z,3.30
2019-05-25T06:41:42.417Z,3.30
2019-05-25T06:42:42.423Z,3.20
2019-05-25T06:43:42.396Z,3.30
2019-05-25T06:44:42.399Z,3.30
2019-05-25T06:45:42.378Z,3.20
2019-05-25T06:46:42.361Z,3.20
2019-05-25T06:47:42.359Z,3.10
2019-05-25T06:48:42.360Z,2.90
2019-05-25T06:49:42.334Z,3.10
2019-05-25T06:50:42.338Z,3.00
2019-05-25T06:51:42.311Z,3.00
2019-05-25T06:52:42.328Z,3.30
2019-05-25T06:53:42.283Z,3.40
2019-05-25T06:54:42.277Z,2.80
2019-05-25T06:55:42.259Z,2.90
2019-05-25T06:56:42.250Z,2.80
2019-05-25T06:57:43.877Z,3.10
2019-05-25T06:58:42.244Z,3.00
2019-05-25T06:59:42.218Z,2.70
2019-05-25T07:00:42.216Z,2.70
2019-05-25T07:01:42.197Z,2.80
2019-05-25T07:02:42.193Z,2.70
2019-05-25T07:03:42.214Z,2.70
2019-05-25T07:04:42.225Z,2.90
2019-05-25T07:05:42.174Z,3.00
2019-05-25T07:06:42.202Z,3.20
2019-05-25T07:07:42.145Z,2.80
2019-05-25T07:08:42.171Z,2.70
2019-05-25T07:09:42.191Z,2.80
2019-05-25T07:10:42.176Z,3.00
2019-05-25T07:11:42.126Z,2.70
2019-05-25T07:12:42.112Z,3.10
2019-05-25T07:13:42.105Z,3.00
2019-05-25T07:14:42.118Z,3.30
2019-05-25T07:15:42.055Z,2.90
2019-05-25T07:16:42.028Z,2.80
2019-05-25T07:17:42.018Z,3.10
2019-05-25T07:18:42.011Z,2.90
2019-05-25T07:19:42.017Z,3.20
2019-05-25T07:20:41.987Z,2.60
2019-05-25T07:21:41.972Z,2.90
2019-05-25T07:22:41.966Z,3.30
2019-05-25T07:23:41.968Z,3.10
2019-05-25T07:24:41.938Z,2.80
2019-05-25T07:25:41.929Z,2.90
2019-05-25T07:26:41.919Z,2.90
2019-05-25T07:27:57.912Z,3.10
2019-05-25T07:28:42.908Z,3.00
2019-05-25T07:29:41.898Z,3.40
2019-05-25T07:30:41.870Z,3.30
2019-05-25T07:31:41.858Z,3.20
2019-05-25T07:32:41.851Z,3.00
2019-05-25T07:33:41.842Z,3.10
2019-05-25T07:34:41.864Z,2.80
2019-05-25T07:35:41.811Z,3.00
2019-05-25T07:36:41.821Z,2.60
2019-05-25T07:37:41.794Z,2.50
2019-05-25T07:38:41.797Z,2.70
2019-05-25T07:39:41.794Z,2.80
2019-05-25T07:40:41.822Z,2.70
2019-05-25T07:41:41.754Z,2.60
2019-05-25T07:42:41.801Z,2.80
2019-05-25T07:43:41.729Z,3.00
2019-05-25T07:44:41.729Z,3.00
2019-05-25T07:45:41.704Z,2.90
2019-05-25T07:46:41.707Z,3.20
2019-05-25T07:47:41.680Z,3.50
2019-05-25T07:48:41.682Z,3.30
2019-05-25T07:49:41.665Z,3.00
2019-05-25T07:50:41.665Z,3.20
2019-05-25T07:51:41.637Z,3.00
2019-05-25T07:52:41.631Z,3.00
2019-05-25T07:53:41.615Z,3.30
2019-05-25T07:54:41.610Z,3.10
2019-05-25T07:55:41.615Z,3.20
2019-05-25T07:56:41.584Z,3.70
2019-05-25T07:57:41.570Z,3.10
2019-05-25T07:58:41.559Z,3.60
2019-05-25T07:59:41.547Z,3.60
2019-05-25T08:00:41.538Z,3.20
2019-05-25T08:01:41.555Z,3.30
2019-05-25T08:02:41.519Z,3.50
2019-05-25T08:03:41.508Z,3.60
2019-05-25T08:04:41.500Z,3.20
2019-05-25T08:05:41.481Z,3.40
2019-05-25T08:06:41.483Z,4.00
2019-05-25T08:07:41.471Z,3.40
2019-05-25T08:08:41.450Z,3.20
2019-05-25T08:09:41.435Z,3.80
2019-05-25T08:10:41.427Z,3.80
2019-05-25T08:11:41.438Z,3.70
2019-05-25T08:12:41.411Z,3.60
2019-05-25T08:13:41.395Z,3.60
2019-05-25T08:14:44.860Z,3.60
2019-05-25T08:15:41.381Z,3.50
2019-05-25T08:16:41.374Z,4.10
2019-05-25T08:17:41.351Z,3.80
2019-05-25T08:18:41.380Z,3.70
2019-05-25T08:19:41.340Z,3.60
2019-05-25T08:20:41.311Z,3.90
2019-05-25T08:21:41.316Z,3.80
2019-05-25T08:22:41.303Z,3.60
2019-05-25T08:23:41.282Z,4.00
2019-05-25T08:24:41.297Z,4.40
2019-05-25T08:25:41.270Z,3.50
2019-05-25T08:26:41.266Z,3.50
2019-05-25T08:27:41.247Z,3.70
2019-05-25T08:28:41.229Z,3.70
2019-05-25T08:29:41.218Z,3.60
2019-05-25T08:30:41.292Z,3.90
2019-05-25T08:31:41.204Z,3.90
2019-05-25T08:32:41.184Z,4.20
2019-05-25T08:33:41.182Z,3.90
2019-05-25T08:34:41.159Z,3.40
2019-05-25T08:35:41.166Z,3.40
2019-05-25T08:36:41.146Z,3.60
2019-05-25T08:37:41.132Z,3.50
2019-05-25T08:38:41.120Z,3.30
2019-05-25T08:39:41.114Z,3.40
2019-05-25T08:40:41.112Z,3.70
2019-05-25T08:41:41.086Z,3.30
2019-05-25T08:42:41.077Z,3.10
2019-05-25T08:43:41.075Z,3.10
2019-05-25T08:44:41.055Z,3.30
2019-05-25T08:45:41.045Z,3.10
2019-05-25T08:46:41.038Z,3.50
2019-05-25T08:47:41.025Z,3.50
2019-05-25T08:48:41.022Z,3.20
2019-05-25T08:49:41.006Z,3.40
2019-05-25T08:50:40.987Z,3.60
2019-05-25T08:51:40.989Z,3.60
2019-05-25T08:52:40.971Z,2.90
2019-05-25T08:53:42.235Z,3.30
2019-05-25T08:54:40.965Z,3.30
2019-05-25T08:55:40.950Z,3.10
2019-05-25T08:56:40.930Z,3.20
2019-05-25T08:57:40.914Z,3.30
2019-05-25T08:58:48.419Z,3.50
2019-05-25T08:59:41.887Z,3.40
2019-05-25T09:00:40.881Z,3.40
2019-05-25T09:01:40.867Z,3.20
2019-05-25T09:02:40.886Z,3.50
2019-05-25T09:03:40.868Z,3.50
2019-05-25T09:04:40.855Z,3.50
2019-05-25T09:05:40.905Z,3.80
2019-05-25T09:06:40.809Z,3.40
2019-05-25T09:07:40.891Z,3.30
2019-05-25T09:08:40.884Z,3.30
2019-05-25T09:09:40.780Z,3.40
2019-05-25T09:10:40.769Z,3.90
2019-05-25T09:11:40.773Z,3.50
2019-05-25T09:12:40.753Z,3.20
2019-05-25T09:13:40.738Z,3.50
2019-05-25T09:14:40.729Z,3.70
2019-05-25T09:15:40.723Z,2.80
2019-05-25T09:16:40.713Z,3.00
2019-05-25T09:17:40.697Z,3.30
2019-05-25T09:18:40.713Z,3.40
2019-05-25T09:19:40.676Z,3.20
2019-05-25T09:20:40.661Z,3.10
2019-05-25T09:21:40.671Z,3.00
2019-05-25T09:22:40.641Z,2.90
2019-05-25T09:23:40.629Z,2.80
2019-05-25T09:24:40.624Z,2.70
2019-05-25T09:25:40.615Z,2.60
2019-05-25T09:26:40.626Z,2.70
2019-05-25T09:27:40.587Z,2.70
2019-05-25T09:28:40.593Z,2.90
2019-05-25T09:29:40.569Z,2.70
2019-05-25T09:30:40.558Z,2.70
2019-05-25T09:31:40.548Z,2.50
2019-05-25T09:32:40.554Z,2.70
2019-05-25T09:33:40.533Z,2.60
2019-05-25T09:34:40.526Z,2.80
2019-05-25T09:35:40.505Z,2.80
2019-05-25T09:36:40.494Z,3.00
2019-05-25T09:37:40.500Z,2.70
2019-05-25T09:38:43.268Z,2.60
2019-05-25T09:39:40.461Z,2.60
2019-05-25T09:40:40.448Z,2.70
2019-05-25T09:41:40.445Z,2.20
2019-05-25T09:42:40.646Z,2.60
2019-05-25T09:43:40.428Z,2.50
2019-05-25T09:44:40.404Z,2.80
2019-05-25T09:45:40.401Z,2.60
2019-05-25T09:46:40.389Z,2.40
2019-05-25T09:47:40.393Z,2.40
2019-05-25T09:48:40.363Z,2.70
2019-05-25T09:49:40.356Z,2.50
2019-05-25T09:50:40.340Z,2.50
2019-05-25T09:51:40.333Z,2.50
2019-05-25T09:52:40.334Z,2.80
2019-05-25T09:53:40.309Z,2.70
2019-05-25T09:54:40.317Z,2.60
2019-05-25T09:55:40.294Z,2.30
2019-05-25T09:56:40.281Z,2.10
2019-05-25T09:57:41.761Z,2.40
2019-05-25T09:58:40.276Z,2.20
2019-05-25T09:59:40.255Z,2.60
2019-05-25T10:00:40.672Z,2.20
2019-05-25T10:01:40.257Z,2.20
2019-05-25T10:02:40.364Z,2.40
2019-05-25T10:03:40.223Z,2.40
2019-05-25T10:04:40.213Z,2.10
2019-05-25T10:05:40.206Z,2.60
2019-05-25T10:06:40.181Z,2.70
2019-05-25T10:07:40.183Z,2.50
2019-05-25T10:08:40.161Z,2.50
2019-05-25T10:09:40.445Z,2.70
2019-05-25T10:10:40.157Z,2.40
2019-05-25T10:11:40.145Z,2.70
2019-05-25T10:12:40.164Z,2.50
2019-05-25T10:13:40.114Z,2.60
2019-05-25T10:14:40.109Z,3.00
2019-05-25T10:15:40.110Z,2.40
2019-05-25T10:16:40.079Z,2.10
2019-05-25T10:17:40.075Z,2.30
2019-05-25T10:18:40.058Z,2.30
2019-05-25T10:19:40.061Z,2.50
2019-05-25T10:20:40.052Z,2.80
2019-05-25T10:21:40.028Z,2.50
2019-05-25T10:22:40.018Z,2.10
2019-05-25T10:23:40.016Z,2.40
2019-05-25T10:24:40.003Z,2.50
2019-05-25T10:25:40.006Z,3.00
2019-05-25T10:26:39.981Z,2.80
2019-05-25T10:27:39.981Z,2.60
2019-05-25T10:28:39.964Z,2.60
2019-05-25T10:29:39.951Z,2.70
2019-05-25T10:30:39.955Z,2.70
2019-05-25T10:31:39.939Z,2.70
2019-05-25T10:32:39.927Z,2.70
2019-05-25T10:33:39.909Z,2.80
2019-05-25T10:34:39.905Z,2.90
2019-05-25T10:35:39.901Z,2.40
2019-05-25T10:36:39.892Z,2.70
2019-05-25T10:37:39.872Z,2.50
2019-05-25T10:38:39.863Z,2.60
2019-05-25T10:39:39.858Z,2.40
2019-05-25T10:40:39.845Z,2.30
2019-05-25T10:41:39.848Z,2.70
2019-05-25T10:42:39.829Z,2.40
2019-05-25T10:43:39.823Z,2.60
2019-05-25T10:44:39.812Z,3.00
2019-05-25T10:45:39.811Z,2.70
2019-05-25T10:46:39.803Z,2.60
2019-05-25T10:47:39.795Z,2.70
2019-05-25T10:48:39.770Z,2.80
2019-05-25T10:49:39.765Z,2.70
2019-05-25T10:50:39.756Z,2.70
2019-05-25T10:51:39.754Z,2.90
2019-05-25T10:52:39.751Z,2.80
2019-05-25T10:53:39.742Z,2.60
2019-05-25T10:54:39.721Z,2.60
2019-05-25T10:55:39.715Z,2.40
2019-05-25T10:56:39.697Z,2.30
2019-05-25T10:57:39.717Z,2.30
2019-05-25T10:58:39.678Z,2.60
2019-05-25T10:59:51.844Z,2.50
2019-05-25T11:00:40.664Z,3.00
2019-05-25T11:01:39.658Z,2.50
2019-05-25T11:02:39.639Z,2.30
2019-05-25T11:03:39.642Z,2.60
2019-05-25T11:04:39.632Z,2.80
2019-05-25T11:05:39.613Z,2.70
2019-05-25T11:06:39.601Z,2.80
2019-05-25T11:07:39.632Z,2.80
2019-05-25T11:08:39.582Z,2.80
2019-05-25T11:09:39.583Z,2.60
2019-05-25T11:10:39.562Z,2.60
2019-05-25T11:11:39.554Z,2.80
2019-05-25T11:12:39.540Z,2.20
2019-05-25T11:13:39.528Z,2.90
2019-05-25T11:14:39.532Z,2.90
2019-05-25T11:15:39.509Z,2.70
2019-05-25T11:16:39.498Z,2.80
2019-05-25T11:17:39.514Z,3.00
2019-05-25T11:18:39.480Z,2.60
2019-05-25T11:19:39.491Z,2.80
2019-05-25T11:20:39.459Z,2.80
2019-05-25T11:21:39.448Z,2.70
2019-05-25T11:22:39.456Z,2.60
2019-05-25T11:23:39.432Z,2.70
2019-05-25T11:24:39.416Z,2.80
2019-05-25T11:25:39.421Z,2.40
2019-05-25T11:26:39.406Z,3.10
2019-05-25T11:27:39.385Z,3.20
2019-05-25T11:28:39.375Z,3.10
2019-05-25T11:29:39.365Z,3.60
2019-05-25T11:30:39.371Z,3.50
2019-05-25T11:31:39.346Z,3.00
2019-05-25T11:32:39.333Z,3.30
2019-05-25T11:33:39.348Z,3.20
2019-05-25T11:34:39.317Z,2.90
2019-05-25T11:35:39.325Z,3.20
2019-05-25T11:36:39.293Z,3.10
2019-05-25T11:37:39.286Z,3.10
2019-05-25T11:38:39.287Z,3.30
2019-05-25T11:39:39.267Z,3.50
2019-05-25T11:40:39.265Z,3.10
2019-05-25T11:41:39.242Z,2.60
2019-05-25T11:42:39.241Z,3.00
2019-05-25T11:43:39.220Z,2.70
2019-05-25T11:44:39.212Z,3.10
2019-05-25T11:45:39.242Z,2.60
2019-05-25T11:46:39.197Z,3.50
2019-05-25T11:47:39.184Z,3.60
2019-05-25T11:48:39.169Z,3.20
2019-05-25T11:49:39.158Z,3.30
2019-05-25T11:50:39.149Z,3.50
2019-05-25T11:51:39.164Z,3.60
2019-05-25T11:52:39.325Z,3.20
2019-05-25T11:53:39.124Z,3.00
2019-05-25T11:54:39.106Z,3.40
2019-05-25T11:55:39.096Z,3.00
2019-05-25T11:56:39.091Z,3.00
2019-05-25T11:57:39.097Z,2.90
2019-05-25T11:58:46.990Z,3.10
2019-05-25T11:59:40.053Z,2.90
2019-05-25T12:00:39.059Z,3.10
2019-05-25T12:01:39.047Z,2.70
2019-05-25T12:02:39.031Z,3.00
2019-05-25T12:03:39.019Z,3.30
2019-05-25T12:04:39.003Z,3.10
2019-05-25T12:05:39.015Z,3.30
2019-05-25T12:06:38.980Z,3.10
2019-05-25T12:07:38.971Z,3.30
2019-05-25T12:08:38.960Z,3.40
2019-05-25T12:09:38.947Z,3.80
2019-05-25T12:10:38.943Z,3.60
2019-05-25T12:11:38.943Z,3.60
2019-05-25T12:12:38.937Z,3.50
2019-05-25T12:13:38.929Z,3.50
2019-05-25T12:14:38.898Z,3.80
2019-05-25T12:15:38.884Z,3.40
2019-05-25T12:16:38.887Z,3.50
2019-05-25T12:17:38.868Z,3.40
2019-05-25T12:18:38.851Z,3.80
2019-05-25T12:19:38.842Z,4.00
2019-05-25T12:20:38.835Z,3.70
2019-05-25T12:21:38.842Z,3.90
2019-05-25T12:22:38.814Z,3.60
2019-05-25T12:23:38.802Z,3.70
2019-05-25T12:24:38.812Z,3.80
2019-05-25T12:25:38.788Z,3.90
2019-05-25T12:26:38.789Z,3.60
2019-05-25T12:27:38.773Z,4.00
2019-05-25T12:28:38.746Z,4.10
2019-05-25T12:29:38.734Z,3.80
2019-05-25T12:30:41.124Z,3.80
2019-05-25T12:31:38.712Z,3.50
2019-05-25T12:32:38.715Z,3.50
2019-05-25T12:33:38.696Z,4.00
2019-05-25T12:34:38.684Z,3.70
2019-05-25T12:35:38.684Z,3.70
2019-05-25T12:36:38.657Z,3.70
2019-05-25T12:37:38.680Z,4.00
2019-05-25T12:38:38.647Z,3.60
2019-05-25T12:39:38.627Z,3.40
2019-05-25T12:40:52.823Z,3.70
2019-05-25T12:41:39.607Z,3.70
2019-05-25T12:42:38.597Z,3.90
2019-05-25T12:43:38.596Z,4.00
2019-05-25T12:44:38.575Z,3.90
2019-05-25T12:45:41.998Z,4.10
2019-05-25T12:46:38.557Z,3.70
2019-05-25T12:47:38.553Z,3.90
2019-05-25T12:48:38.561Z,3.90
2019-05-25T12:49:50.198Z,4.00
2019-05-25T12:50:39.507Z,3.90
2019-05-25T12:51:38.499Z,3.60
2019-05-25T12:52:38.510Z,4.00
2019-05-25T12:53:38.485Z,4.10
2019-05-25T12:54:38.480Z,3.90
2019-05-25T12:55:38.469Z,3.80
2019-05-25T12:56:38.449Z,3.90
2019-05-25T12:57:38.438Z,4.00
2019-05-25T12:58:38.455Z,4.00
2019-05-25T12:59:38.430Z,3.90
2019-05-25T13:00:38.410Z,3.50
2019-05-25T13:01:38.395Z,3.90
2019-05-25T13:02:38.386Z,3.80
2019-05-25T13:03:38.376Z,3.50
2019-05-25T13:04:38.379Z,3.60
2019-05-25T13:05:38.367Z,3.40
2019-05-25T13:06:38.347Z,3.20
2019-05-25T13:07:38.331Z,3.40
2019-05-25T13:08:38.319Z,3.40
2019-05-25T13:09:38.320Z,3.20
2019-05-25T13:10:38.302Z,3.50
2019-05-25T13:11:38.287Z,3.60
2019-05-25T13:12:38.280Z,3.60
2019-05-25T13:13:38.299Z,3.40
2019-05-25T13:14:38.277Z,4.00
2019-05-25T13:15:38.246Z,3.90
2019-05-25T13:16:38.250Z,4.30
2019-05-25T13:17:38.232Z,3.80
2019-05-25T13:18:38.215Z,3.60